MAPA DE AEROPUERTO

INFORMACIÓN METAR y TAF

METAR FOR LEAL
ADDS - METARS form results

(0607 UTC 10 August 2020)
Data provider http://aviationweather.gov/metar/data/
 
METAR text: LEAL 100600Z VRB02KT 9999 FEW050 23/12 Q1012 NOSIG
Conditions at: LEAL (ALICANTE/EL ALTE, ES) observed 0600 UTC 10 August 2020
Temperature: 23.0°C (73°F)
Dewpoint: 12.0°C (54°F) [RH = 50%]
Pressure (altimeter): 29.88 inches Hg (1012.0 mb)
Winds: variable direction winds at 2 MPH (2 knots; 1.0 m/s)
Visibility: 6 or more miles (10+ km)
Ceiling: at least 12,000 feet AGL
Clouds: few clouds at 5000 feet AGL
Weather: no significant weather observed at this time

METAR text: LEAL 100530Z 28004KT 9999 FEW045 23/11 Q1012 NOSIG
Conditions at: LEAL (ALICANTE/EL ALTE, ES) observed 0530 UTC 10 August 2020
Temperature: 23.0°C (73°F)
Dewpoint: 11.0°C (52°F) [RH = 47%]
Pressure (altimeter): 29.88 inches Hg (1012.0 mb)
Winds: from the W (280 degrees) at 5 MPH (4 knots; 2.1 m/s)
Visibility: 6 or more miles (10+ km)
Ceiling: at least 12,000 feet AGL
Clouds: few clouds at 4500 feet AGL
Weather: no significant weather observed at this time

Forecast for: LEAL (ALICANTE/EL ALTE, ES)
Text: TAF LEAL 100500Z 1006/1106 03005KT 9999 FEW045 TX33/1013Z TN21/1105Z
Forecast period: 0600 to 0800 UTC 10 August 2020
Forecast type: FROM: standard forecast or significant change
Winds: from the NNE (30 degrees) at 6 MPH (5 knots; 2.6 m/s)
Visibility: 6 or more miles (10+ km)
Ceiling: at least 12,000 feet AGL
Clouds: few clouds at 4500 feet AGL
Weather: no significant weather forecast for this period
Text: BECMG 1008/1010 09010KT
Forecast period: 0800 to 1900 UTC 10 August 2020
Forecast type: BECOMING: Conditions expected to become as follows by 1000 UTC 10 August 2020
Winds: from the E (90 degrees) at 12 MPH (10 knots; 5.1 m/s)
Visibility: 6 or more miles (10+ km)
Ceiling: at least 12,000 feet AGL
Clouds: few clouds at 4500 feet AGL
Weather: no significant weather forecast for this period
Text: BECMG 1019/1021 03005KT
Forecast period: 1900 UTC 10 August 2020 to 0600 UTC 11 August 2020
Forecast type: BECOMING: Conditions expected to become as follows by 2100 UTC 10 August 2020
Winds: from the NNE (30 degrees) at 6 MPH (5 knots; 2.6 m/s)
Visibility: 6 or more miles (10+ km)
Ceiling: at least 12,000 feet AGL
Clouds: few clouds at 4500 feet AGL
Weather: no significant weather forecast for this period